PAHP

Details ICAO PAHP (HPB)
Name HOOPER BAY
Region USA (Alaska)
Timezone America/Nome (UTC-8.0)
Plans Departing 4
Arriving 2
Stats Elevation 7 ft / 2 m (AMSL)
Location 61.523872° -166.146625°
Runways 1
Magnetic Variation 9.444° E
Sunrise 2018-05-20 14:03:03 UTC / 2018-05-20 06:03:03 Local
Sunset 2018-05-21 08:02:05 UTC / 2018-05-21 00:02:05 Local
Advertisement - Login to hide

Runways

ID Width Length Bearing (true) Bearing (mag) Surface Threshold Offset Overrun Length
13 75 ft / 23 m 3,292 ft / 1,003 m 148.68° 139.24° Asphalt 0 ft / 0 m 0 ft / 0 m
31 75 ft / 23 m 3,292 ft / 1,003 m 328.69° 319.25° Asphalt 0 ft / 0 m 0 ft / 0 m

Map

Weather


0- 5 10 15 20 25 30 35+ Temperature / ° C

Clouds and Precipitation
Forecast for 2018-05-20 18:00 UTC. Updated 5 hours ago

Ground ~20,000 ft ~40,000 ft Winds

METAR

PAHP 202156Z AUTO 33019KT 5SM BR OVC003 04/03 A2957 RMK AO2 SLP051 T00390028

TAF

Not found

Frequencies

Recorded 135.10 MHz AWOS 3
Unicom 123.00 MHz CTAF
Warning: Do not use this data for real-world aviation or navigation. No guarantee of current accuracy is given.